Tunker, Indiana
Current Conditions -  °F | °C
As of 8:15 PM on Sunday 21 Dec 2014 (Local Time) from KHHG Reporting Station
Clear Clear  
Wind Chill: 22°   Ceiling: Unl
Heat Index: 29°   Visibility: 7mi
Dew Point: 26°   Wind: 7mph
Humidity: 86%   Direction: 120°ESE
Pressure: 30.14"   Gusts: NA
Location:  41.056°N, 85.6112°W
Report Text: KHHG 220115Z AUTO 12006KT 7SM CLR M01/M03 A3014 RMK AO2 T10151035
Loading
Personal Weather Stations






























Interactive Weather Map New forecast layout! Learn more

10-Day Weather Forecast

Advertisements
Track Severe Weather on mobile